createdAt,value
2019-05-03T00:02:47.794Z,97.50
2019-05-03T00:05:26.712Z,97.40
2019-05-03T00:08:06.424Z,97.30
2019-05-03T00:10:37.118Z,97.40
2019-05-03T00:13:07.913Z,97.40
2019-05-03T00:15:55.801Z,97.30
2019-05-03T00:18:25.361Z,97.40
2019-05-03T00:20:55.219Z,97.40
2019-05-03T00:23:24.700Z,97.40
2019-05-03T00:25:54.188Z,97.40
2019-05-03T00:28:23.703Z,97.50
2019-05-03T00:30:53.197Z,97.60
2019-05-03T00:33:22.691Z,97.70
2019-05-03T00:36:22.337Z,97.80
2019-05-03T00:38:54.007Z,97.70
2019-05-03T00:41:24.026Z,97.80
2019-05-03T00:43:53.568Z,97.90
2019-05-03T00:46:23.070Z,97.80
2019-05-03T00:48:52.636Z,97.90
2019-05-03T00:51:22.576Z,97.80
2019-05-03T00:53:53.163Z,97.80
2019-05-03T00:56:22.721Z,98.00
2019-05-03T00:58:58.560Z,98.10
2019-05-03T01:01:28.069Z,98.20
2019-05-03T01:03:57.683Z,98.30
2019-05-03T01:06:27.158Z,98.30
2019-05-03T01:08:56.659Z,98.20
2019-05-03T01:11:26.507Z,98.30
2019-05-03T01:13:55.965Z,98.20
2019-05-03T01:16:26.429Z,98.20
2019-05-03T01:18:55.921Z,98.00
2019-05-03T01:21:25.380Z,97.80
2019-05-03T01:23:54.921Z,97.60
2019-05-03T01:26:24.541Z,97.70
2019-05-03T01:28:54.017Z,96.80
2019-05-03T01:31:23.649Z,96.60
2019-05-03T01:33:53.261Z,96.40
2019-05-03T01:36:23.507Z,96.40
2019-05-03T01:38:53.272Z,96.30
2019-05-03T01:41:23.492Z,96.10
2019-05-03T01:43:53.102Z,95.90
2019-05-03T01:46:23.007Z,96.00
2019-05-03T01:49:05.045Z,95.90
2019-05-03T01:51:52.639Z,95.80
2019-05-03T01:54:22.872Z,95.70
2019-05-03T01:56:58.793Z,95.80
2019-05-03T01:59:23.633Z,95.70
2019-05-03T02:02:24.042Z,95.80
2019-05-03T02:05:15.757Z,95.50
2019-05-03T02:07:45.262Z,95.70
2019-05-03T02:10:15.025Z,95.60
2019-05-03T02:12:44.535Z,95.80
2019-05-03T02:15:14.406Z,95.50
2019-05-03T02:17:43.896Z,95.60
2019-05-03T02:20:13.483Z,95.40
2019-05-03T02:22:43.061Z,95.60
2019-05-03T02:25:12.605Z,95.60
2019-05-03T02:27:42.385Z,95.80
2019-05-03T02:30:14.267Z,95.60
2019-05-03T02:32:44.070Z,95.60
2019-05-03T02:35:14.254Z,95.60
2019-05-03T02:37:45.765Z,95.50
2019-05-03T02:40:16.319Z,95.40
2019-05-03T02:43:06.072Z,95.50
2019-05-03T02:45:39.451Z,95.40
2019-05-03T02:48:16.793Z,95.50
2019-05-03T02:50:46.487Z,95.60
2019-05-03T02:53:19.483Z,95.50
2019-05-03T02:55:49.361Z,95.60
2019-05-03T02:58:19.196Z,95.70
2019-05-03T03:01:00.104Z,95.90
2019-05-03T03:03:31.882Z,95.80
2019-05-03T03:06:02.853Z,95.80
2019-05-03T03:08:36.712Z,95.80
2019-05-03T03:11:08.668Z,95.80
2019-05-03T03:13:39.749Z,96.00
2019-05-03T03:16:11.485Z,95.90
2019-05-03T03:18:45.354Z,96.00
2019-05-03T03:21:17.541Z,96.10
2019-05-03T03:24:05.765Z,96.10
2019-05-03T03:26:39.274Z,96.60
2019-05-03T03:29:07.354Z,96.60
2019-05-03T03:31:57.374Z,96.70
2019-05-03T03:34:28.264Z,96.70
2019-05-03T03:37:04.339Z,96.80
2019-05-03T03:39:29.657Z,96.80
2019-05-03T03:41:59.732Z,96.90
2019-05-03T03:44:29.405Z,97.20
2019-05-03T03:47:00.212Z,97.10
2019-05-03T03:49:32.397Z,97.50
2019-05-03T03:52:06.081Z,97.50
2019-05-03T03:54:37.784Z,98.10
2019-05-03T03:57:08.502Z,98.20
2019-05-03T03:59:37.955Z,98.70
2019-05-03T04:02:07.527Z,99.20
2019-05-03T04:04:37.325Z,99.90
2019-05-03T04:07:07.086Z,99.90
2019-05-03T04:09:36.907Z,99.90
2019-05-03T04:12:06.721Z,99.90
2019-05-03T04:14:47.114Z,99.90
2019-05-03T04:17:39.307Z,99.90
2019-05-03T04:20:09.266Z,99.90
2019-05-03T04:22:39.256Z,99.90
2019-05-03T04:25:08.854Z,99.90
2019-05-03T04:27:38.407Z,99.90
2019-05-03T04:30:07.907Z,99.90
2019-05-03T04:32:37.626Z,99.90
2019-05-03T04:35:07.062Z,99.90
2019-05-03T04:37:36.518Z,99.90
2019-05-03T04:40:06.711Z,99.90
2019-05-03T04:42:36.191Z,99.90
2019-05-03T04:45:06.143Z,99.90
2019-05-03T04:47:35.838Z,99.90
2019-05-03T04:50:05.839Z,99.90
2019-05-03T04:52:36.198Z,99.90
2019-05-03T04:55:06.566Z,99.90
2019-05-03T04:57:42.167Z,99.90
2019-05-03T05:00:11.255Z,99.90
2019-05-03T05:02:39.661Z,99.90
2019-05-03T05:05:09.462Z,99.90
2019-05-03T05:07:38.977Z,99.90
2019-05-03T05:10:08.941Z,99.90
2019-05-03T05:12:38.449Z,99.90
2019-05-03T05:15:08.189Z,99.90
2019-05-03T05:18:05.935Z,99.90
2019-05-03T05:20:41.512Z,99.90
2019-05-03T05:23:10.968Z,99.90
2019-05-03T05:25:45.311Z,99.90
2019-05-03T05:28:20.698Z,99.90
2019-05-03T05:30:50.416Z,99.90
2019-05-03T05:33:22.760Z,99.90
2019-05-03T05:35:54.525Z,99.90
2019-05-03T05:38:25.604Z,99.90
2019-05-03T05:40:55.571Z,99.90
2019-05-03T05:43:25.646Z,99.90
2019-05-03T05:45:58.651Z,99.90
2019-05-03T05:48:51.663Z,99.90
2019-05-03T05:51:21.236Z,99.90
2019-05-03T05:53:50.713Z,99.90
2019-05-03T05:56:35.758Z,99.90
2019-05-03T05:59:15.203Z,99.90
2019-05-03T06:01:55.539Z,99.90
2019-05-03T06:04:25.268Z,99.90
2019-05-03T06:07:16.970Z,99.90
2019-05-03T06:10:09.878Z,99.90
2019-05-03T06:12:50.242Z,99.90
2019-05-03T06:15:42.077Z,99.90
2019-05-03T06:18:17.316Z,99.90
2019-05-03T06:20:54.364Z,99.90
2019-05-03T06:23:31.144Z,99.90
2019-05-03T06:26:00.717Z,99.90
2019-05-03T06:28:35.099Z,99.90
2019-05-03T06:31:22.700Z,99.90
2019-05-03T06:33:52.527Z,99.90
2019-05-03T06:36:22.070Z,99.90
2019-05-03T06:38:51.581Z,99.90
2019-05-03T06:41:21.065Z,99.90
2019-05-03T06:43:50.495Z,99.90
2019-05-03T06:46:23.504Z,99.90
2019-05-03T06:48:54.306Z,99.90
2019-05-03T06:51:24.845Z,99.10
2019-05-03T06:53:54.762Z,98.70
2019-05-03T06:56:29.010Z,99.80
2019-05-03T06:58:57.029Z,99.00
2019-05-03T07:01:35.625Z,98.20
2019-05-03T07:04:10.277Z,98.00
2019-05-03T07:07:00.503Z,98.20
2019-05-03T07:09:35.421Z,98.20
2019-05-03T07:12:04.927Z,99.00
2019-05-03T07:14:34.932Z,98.80
2019-05-03T07:17:05.561Z,98.40
2019-05-03T07:19:35.487Z,98.10
2019-05-03T07:22:05.243Z,97.00
2019-05-03T07:24:40.400Z,97.40
2019-05-03T07:27:05.878Z,96.70
2019-05-03T07:29:36.612Z,96.80
2019-05-03T07:32:06.247Z,97.40
2019-05-03T07:34:35.719Z,96.60
2019-05-03T07:37:06.030Z,96.80
2019-05-03T07:39:35.741Z,95.70
2019-05-03T07:42:05.546Z,95.00
2019-05-03T07:44:35.193Z,94.90
2019-05-03T07:47:04.959Z,94.30
2019-05-03T07:49:35.676Z,96.00
2019-05-03T07:52:05.963Z,97.10
2019-05-03T07:54:35.758Z,97.30
2019-05-03T07:57:25.669Z,99.90
2019-05-03T07:59:55.767Z,98.50
2019-05-03T08:02:27.473Z,99.70
2019-05-03T08:04:56.508Z,99.90
2019-05-03T08:07:26.004Z,99.90
2019-05-03T08:09:55.745Z,99.90
2019-05-03T08:12:25.238Z,99.90
2019-05-03T08:14:55.306Z,99.90
2019-05-03T08:17:25.556Z,99.90
2019-05-03T08:19:55.580Z,99.90
2019-05-03T08:22:25.699Z,99.90
2019-05-03T08:24:55.646Z,99.90
2019-05-03T08:27:25.349Z,99.90
2019-05-03T08:29:55.804Z,99.90
2019-05-03T08:32:50.400Z,99.90
2019-05-03T08:35:35.672Z,99.90
2019-05-03T08:38:05.216Z,99.80
2019-05-03T08:40:40.285Z,98.00
2019-05-03T08:43:09.733Z,97.80
2019-05-03T08:45:39.520Z,97.30
2019-05-03T08:48:09.032Z,96.70
2019-05-03T08:50:38.886Z,95.80
2019-05-03T08:53:08.332Z,96.10
2019-05-03T08:55:37.843Z,95.80
2019-05-03T08:58:07.353Z,97.30
2019-05-03T09:00:39.480Z,95.90
2019-05-03T09:03:09.033Z,95.20
2019-05-03T09:05:38.503Z,95.00
2019-05-03T09:08:08.072Z,95.50
2019-05-03T09:10:46.357Z,93.40
2019-05-03T09:13:20.213Z,93.50
2019-05-03T09:15:50.582Z,92.50
2019-05-03T09:18:20.072Z,92.50
2019-05-03T09:20:49.513Z,90.50
2019-05-03T09:23:19.178Z,91.30
2019-05-03T09:25:48.664Z,91.70
2019-05-03T09:28:18.121Z,89.70
2019-05-03T09:30:47.680Z,86.10
2019-05-03T09:33:17.115Z,88.10
2019-05-03T09:35:46.596Z,85.20
2019-05-03T09:38:16.266Z,84.50
2019-05-03T09:40:45.731Z,80.90
2019-05-03T09:43:15.295Z,81.60
2019-05-03T09:45:45.770Z,78.40
2019-05-03T09:48:15.441Z,79.20
2019-05-03T09:50:45.262Z,77.90
2019-05-03T09:53:16.983Z,78.40
2019-05-03T09:55:46.448Z,74.40
2019-05-03T09:58:16.044Z,73.70
2019-05-03T10:00:47.011Z,72.00
2019-05-03T10:03:16.503Z,68.60
2019-05-03T10:05:45.992Z,65.80
2019-05-03T10:08:16.303Z,66.00
2019-05-03T10:11:05.482Z,66.60
2019-05-03T10:13:35.600Z,61.90
2019-05-03T10:16:06.232Z,62.00
2019-05-03T10:18:36.336Z,61.00
2019-05-03T10:21:06.034Z,60.20
2019-05-03T10:23:39.597Z,59.80
2019-05-03T10:26:09.373Z,58.80
2019-05-03T10:28:38.942Z,59.40
2019-05-03T10:31:08.453Z,58.50
2019-05-03T10:33:45.036Z,59.20
2019-05-03T10:36:15.446Z,60.70
2019-05-03T10:38:45.980Z,59.30
2019-05-03T10:41:15.729Z,58.50
2019-05-03T10:43:45.442Z,57.50
2019-05-03T10:46:15.880Z,54.90
2019-05-03T10:48:45.691Z,57.70
2019-05-03T10:51:15.814Z,58.50
2019-05-03T10:53:48.261Z,58.50
2019-05-03T10:56:37.381Z,57.70
2019-05-03T10:59:08.058Z,55.90
2019-05-03T11:01:56.477Z,52.50
2019-05-03T11:04:26.776Z,54.70
2019-05-03T11:06:56.228Z,52.30
2019-05-03T11:09:26.113Z,52.30
2019-05-03T11:11:55.793Z,54.00
2019-05-03T11:14:25.588Z,54.10
2019-05-03T11:16:55.425Z,55.00
2019-05-03T11:19:25.419Z,55.60
2019-05-03T11:21:55.004Z,55.00
2019-05-03T11:24:27.159Z,51.70
2019-05-03T11:27:00.034Z,51.10
2019-05-03T11:29:28.626Z,51.80
2019-05-03T11:32:11.880Z,49.80
2019-05-03T11:34:55.458Z,49.60
2019-05-03T11:37:45.347Z,52.70
2019-05-03T11:40:16.627Z,49.90
2019-05-03T11:42:46.846Z,47.50
2019-05-03T11:45:16.760Z,46.60
2019-05-03T11:47:46.266Z,45.60
2019-05-03T11:50:15.976Z,46.40
2019-05-03T11:52:47.230Z,46.30
2019-05-03T11:55:16.650Z,44.10
2019-05-03T11:57:46.106Z,44.60
2019-05-03T12:00:20.610Z,43.10
2019-05-03T12:03:15.588Z,41.30
2019-05-03T12:05:48.329Z,41.50
2019-05-03T12:08:17.917Z,42.50
2019-05-03T12:10:55.425Z,41.10
2019-05-03T12:13:30.455Z,40.90
2019-05-03T12:16:05.429Z,42.60
2019-05-03T12:18:47.973Z,42.30
2019-05-03T12:21:07.933Z,40.80
2019-05-03T12:23:37.011Z,41.00
2019-05-03T12:26:12.778Z,41.60
2019-05-03T12:28:38.062Z,41.50
2019-05-03T12:31:07.533Z,41.90
2019-05-03T12:33:37.071Z,41.30
2019-05-03T12:36:06.660Z,42.70
2019-05-03T12:38:36.100Z,41.00
2019-05-03T12:41:05.862Z,40.90
2019-05-03T12:43:35.389Z,41.20
2019-05-03T12:46:05.211Z,41.70
2019-05-03T12:48:35.490Z,42.90
2019-05-03T12:51:06.563Z,42.10
2019-05-03T12:53:36.733Z,43.00
2019-05-03T12:56:11.164Z,39.90
2019-05-03T12:58:50.384Z,39.70
2019-05-03T13:01:45.452Z,38.80
2019-05-03T13:04:18.860Z,39.00
2019-05-03T13:06:54.948Z,38.30
2019-05-03T13:09:25.187Z,39.20
2019-05-03T13:11:58.975Z,39.40
2019-05-03T13:14:27.313Z,39.40
2019-05-03T13:16:56.779Z,38.70
2019-05-03T13:19:26.372Z,38.90
2019-05-03T13:21:55.880Z,38.50
2019-05-03T13:24:26.040Z,38.70
2019-05-03T13:26:55.587Z,39.20
2019-05-03T13:29:25.709Z,40.50
2019-05-03T13:32:01.661Z,40.20
2019-05-03T13:34:26.488Z,39.80
2019-05-03T13:36:56.005Z,39.20
2019-05-03T13:39:26.520Z,39.40
2019-05-03T13:41:56.401Z,40.10
2019-05-03T13:44:25.849Z,40.80
2019-05-03T13:46:55.350Z,40.00
2019-05-03T13:49:26.403Z,40.30
2019-05-03T13:51:56.252Z,41.90
2019-05-03T13:54:25.705Z,41.20
2019-05-03T13:56:55.319Z,42.40
2019-05-03T13:59:24.831Z,42.10
2019-05-03T14:01:54.681Z,41.70
2019-05-03T14:04:24.257Z,42.30
2019-05-03T14:06:55.242Z,42.40
2019-05-03T14:09:25.191Z,42.40
2019-05-03T14:11:55.333Z,41.30
2019-05-03T14:14:25.844Z,41.80
2019-05-03T14:16:55.493Z,42.10
2019-05-03T14:19:31.523Z,41.50
2019-05-03T14:22:02.614Z,41.20
2019-05-03T14:24:32.058Z,40.90
2019-05-03T14:27:01.538Z,41.00
2019-05-03T14:29:30.971Z,42.10
2019-05-03T14:32:00.421Z,41.70
2019-05-03T14:34:30.312Z,41.90
2019-05-03T14:36:59.768Z,42.30
2019-05-03T14:39:29.208Z,42.80
2019-05-03T14:41:58.711Z,42.40
2019-05-03T14:44:28.172Z,40.60
2019-05-03T14:46:59.227Z,38.60
2019-05-03T14:49:28.820Z,37.20
2019-05-03T14:51:58.462Z,37.70
2019-05-03T14:54:30.192Z,38.30
2019-05-03T14:57:07.518Z,37.00
2019-05-03T15:00:05.471Z,37.40
2019-05-03T15:02:45.982Z,39.00
2019-05-03T15:05:11.364Z,39.40
2019-05-03T15:07:40.936Z,40.60
2019-05-03T15:10:10.618Z,39.90
2019-05-03T15:12:40.055Z,39.40
2019-05-03T15:15:10.105Z,39.10
2019-05-03T15:17:39.574Z,40.10
2019-05-03T15:20:09.125Z,39.70
2019-05-03T15:22:38.673Z,41.10
2019-05-03T15:25:08.349Z,41.00
2019-05-03T15:27:37.827Z,40.10
2019-05-03T15:30:07.815Z,40.40
2019-05-03T15:32:37.296Z,38.70
2019-05-03T15:35:07.591Z,38.80
2019-05-03T15:37:37.033Z,39.90
2019-05-03T15:40:07.455Z,41.00
2019-05-03T15:42:38.729Z,41.10
2019-05-03T15:45:29.958Z,41.00
2019-05-03T15:48:16.956Z,41.00
2019-05-03T15:50:46.498Z,41.80
2019-05-03T15:53:15.939Z,42.10
2019-05-03T15:55:45.537Z,41.90
2019-05-03T15:58:15.394Z,41.90
2019-05-03T16:00:45.001Z,41.30
2019-05-03T16:03:14.581Z,40.90
2019-05-03T16:05:44.696Z,41.50
2019-05-03T16:08:15.369Z,42.50
2019-05-03T16:10:45.727Z,42.20
2019-05-03T16:13:15.533Z,42.50
2019-05-03T16:15:44.976Z,41.80
2019-05-03T16:18:14.832Z,42.60
2019-05-03T16:20:45.045Z,41.30
2019-05-03T16:23:15.452Z,41.80
2019-05-03T16:25:45.527Z,41.70
2019-05-03T16:28:37.032Z,41.20
2019-05-03T16:31:18.442Z,42.20
2019-05-03T16:33:48.028Z,40.70
2019-05-03T16:36:17.576Z,42.20
2019-05-03T16:38:47.062Z,41.40
2019-05-03T16:41:17.978Z,41.20
2019-05-03T16:43:47.819Z,41.60
2019-05-03T16:46:17.230Z,42.30
2019-05-03T16:48:46.669Z,41.90
2019-05-03T16:51:17.225Z,41.70
2019-05-03T16:53:47.017Z,42.60
2019-05-03T16:56:17.153Z,42.50
2019-05-03T16:58:46.768Z,42.70
2019-05-03T17:01:18.165Z,42.60
2019-05-03T17:03:52.219Z,43.70
2019-05-03T17:06:34.719Z,42.40
2019-05-03T17:09:20.238Z,42.50
2019-05-03T17:12:11.090Z,42.40
2019-05-03T17:14:40.568Z,42.80
2019-05-03T17:17:10.017Z,44.00
2019-05-03T17:19:39.466Z,44.20
2019-05-03T17:22:08.923Z,44.10
2019-05-03T17:24:38.399Z,44.70
2019-05-03T17:27:08.297Z,45.70
2019-05-03T17:29:37.722Z,46.60
2019-05-03T17:32:07.145Z,46.40
2019-05-03T17:34:36.597Z,46.50
2019-05-03T17:37:06.054Z,46.90
2019-05-03T17:39:54.704Z,48.40
2019-05-03T17:42:45.097Z,48.30
2019-05-03T17:45:16.413Z,48.30
2019-05-03T17:47:45.890Z,48.80
2019-05-03T17:50:15.363Z,49.80
2019-05-03T17:52:51.995Z,50.20
2019-05-03T17:55:46.365Z,50.30
2019-05-03T17:58:27.370Z,50.90
2019-05-03T18:01:14.700Z,51.30
2019-05-03T18:03:46.773Z,51.60
2019-05-03T18:06:22.996Z,52.80
2019-05-03T18:09:04.785Z,54.70
2019-05-03T18:11:39.959Z,55.80
2019-05-03T18:14:09.416Z,57.30
2019-05-03T18:16:38.885Z,57.30
2019-05-03T18:19:08.331Z,59.00
2019-05-03T18:21:37.769Z,60.50
2019-05-03T18:24:07.209Z,61.40
2019-05-03T18:26:36.682Z,63.20
2019-05-03T18:29:06.139Z,65.10
2019-05-03T18:31:35.643Z,65.10
2019-05-03T18:34:08.854Z,65.20
2019-05-03T18:36:36.253Z,65.70
2019-05-03T18:39:09.494Z,66.50
2019-05-03T18:41:38.937Z,67.60
2019-05-03T18:44:26.816Z,69.80
2019-05-03T18:46:59.154Z,70.40
2019-05-03T18:49:28.645Z,71.40
2019-05-03T18:51:58.238Z,74.10
2019-05-03T18:54:27.732Z,73.30
2019-05-03T18:56:57.233Z,72.20
2019-05-03T18:59:26.982Z,71.70
2019-05-03T19:01:56.413Z,71.70
2019-05-03T19:04:45.194Z,69.90
2019-05-03T19:07:26.838Z,69.70
2019-05-03T19:10:06.383Z,70.40
2019-05-03T19:12:55.233Z,70.90
2019-05-03T19:15:25.095Z,71.00
2019-05-03T19:18:07.838Z,70.50
2019-05-03T19:20:37.308Z,71.50
2019-05-03T19:23:06.764Z,72.10
2019-05-03T19:25:45.897Z,72.50
2019-05-03T19:28:08.089Z,73.80
2019-05-03T19:30:39.245Z,74.00
2019-05-03T19:33:08.725Z,75.50
2019-05-03T19:35:38.198Z,76.30
2019-05-03T19:38:07.760Z,77.10
2019-05-03T19:40:37.544Z,78.80
2019-05-03T19:43:07.010Z,79.80
2019-05-03T19:45:37.474Z,81.30
2019-05-03T19:48:09.588Z,82.80
2019-05-03T19:50:38.225Z,84.00
2019-05-03T19:53:38.830Z,83.60
2019-05-03T19:56:08.361Z,84.40
2019-05-03T19:58:38.117Z,85.50
2019-05-03T20:01:35.552Z,85.40
2019-05-03T20:04:24.510Z,86.60
2019-05-03T20:07:00.801Z,86.40
2019-05-03T20:09:32.077Z,87.30
2019-05-03T20:12:01.598Z,87.40
2019-05-03T20:14:31.136Z,88.30
2019-05-03T20:17:00.598Z,88.50
2019-05-03T20:19:30.378Z,89.50
2019-05-03T20:21:59.929Z,90.10
2019-05-03T20:24:30.859Z,90.40
2019-05-03T20:27:00.391Z,90.70
2019-05-03T20:29:30.026Z,91.20
2019-05-03T20:31:59.481Z,91.50
2019-05-03T20:34:28.945Z,92.10
2019-05-03T20:36:58.751Z,92.20
2019-05-03T20:39:28.265Z,92.20
2019-05-03T20:41:57.713Z,92.30
2019-05-03T20:44:46.166Z,92.70
2019-05-03T20:47:25.731Z,92.80
2019-05-03T20:50:15.303Z,92.80
2019-05-03T20:52:44.539Z,92.70
2019-05-03T20:55:15.544Z,92.90
2019-05-03T20:57:45.303Z,93.30
2019-05-03T21:00:17.565Z,93.30
2019-05-03T21:02:53.428Z,93.60
2019-05-03T21:05:27.832Z,93.70
2019-05-03T21:07:50.315Z,93.60
2019-05-03T21:10:19.841Z,94.00
2019-05-03T21:12:49.352Z,94.00
2019-05-03T21:15:30.015Z,94.20
2019-05-03T21:18:15.108Z,94.20
2019-05-03T21:20:55.487Z,94.60
2019-05-03T21:23:25.759Z,94.50
2019-05-03T21:26:12.969Z,94.60
2019-05-03T21:28:40.332Z,94.60
2019-05-03T21:31:09.811Z,94.70
2019-05-03T21:33:39.281Z,94.90
2019-05-03T21:36:08.799Z,94.80
2019-05-03T21:38:40.851Z,95.00
2019-05-03T21:41:09.397Z,95.00
2019-05-03T21:43:38.892Z,95.30
2019-05-03T21:46:20.054Z,95.40
2019-05-03T21:48:57.705Z,95.60
2019-05-03T21:51:27.193Z,96.10
2019-05-03T21:53:56.977Z,96.70
2019-05-03T21:56:26.508Z,96.90
2019-05-03T21:58:56.058Z,96.90
2019-05-03T22:01:25.861Z,96.70
2019-05-03T22:03:55.626Z,96.70
2019-05-03T22:06:25.114Z,97.00
2019-05-03T22:08:55.419Z,97.50
2019-05-03T22:11:25.263Z,97.60
2019-05-03T22:13:57.144Z,97.60
2019-05-03T22:16:45.011Z,97.70
2019-05-03T22:19:17.070Z,97.90
2019-05-03T22:22:16.731Z,98.00
2019-05-03T22:24:50.236Z,98.20
2019-05-03T22:27:21.324Z,98.40
2019-05-03T22:29:50.826Z,98.50
2019-05-03T22:32:20.616Z,98.60
2019-05-03T22:34:50.160Z,98.50
2019-05-03T22:37:19.615Z,98.40
2019-05-03T22:39:49.156Z,98.00
2019-05-03T22:42:18.669Z,98.30
2019-05-03T22:44:48.202Z,98.50
2019-05-03T22:47:17.820Z,98.70
2019-05-03T22:49:47.336Z,98.80
2019-05-03T22:52:16.834Z,99.00
2019-05-03T22:54:46.449Z,99.00
2019-05-03T22:57:15.964Z,98.80
2019-05-03T22:59:45.448Z,98.90
2019-05-03T23:02:16.834Z,98.80
2019-05-03T23:04:46.034Z,98.90
2019-05-03T23:07:15.497Z,98.90
2019-05-03T23:09:45.010Z,99.10
2019-05-03T23:12:14.492Z,99.40
2019-05-03T23:14:44.687Z,99.70
2019-05-03T23:17:14.973Z,99.80
2019-05-03T23:19:51.272Z,99.90
2019-05-03T23:22:24.660Z,99.80
2019-05-03T23:24:54.843Z,99.50
2019-05-03T23:27:25.017Z,99.50
2019-05-03T23:29:54.659Z,99.40
2019-05-03T23:32:24.592Z,99.50
2019-05-03T23:34:54.575Z,99.80
2019-05-03T23:37:24.071Z,99.60
2019-05-03T23:39:55.175Z,99.70
2019-05-03T23:42:24.743Z,99.70
2019-05-03T23:44:55.299Z,99.80
2019-05-03T23:47:41.674Z,99.90
2019-05-03T23:50:14.837Z,99.90
2019-05-03T23:52:45.196Z,99.90
2019-05-03T23:55:44.905Z,99.90
2019-05-03T23:58:14.493Z,99.90
